createdAt,value
2022-09-15T00:01:13.236Z,14.44
2022-09-15T00:03:40.805Z,14.40
2022-09-15T00:06:08.789Z,14.37
2022-09-15T00:08:35.977Z,14.35
2022-09-15T00:11:08.526Z,14.32
2022-09-15T00:13:36.795Z,14.29
2022-09-15T00:16:04.896Z,14.26
2022-09-15T00:18:32.781Z,14.26
2022-09-15T00:20:59.586Z,14.23
2022-09-15T00:23:27.175Z,14.18
2022-09-15T00:25:54.500Z,14.13
2022-09-15T00:28:22.602Z,14.07
2022-09-15T00:30:54.231Z,14.04
2022-09-15T00:33:22.914Z,13.99
2022-09-15T00:35:51.965Z,13.96
2022-09-15T00:38:20.007Z,13.91
2022-09-15T00:40:58.343Z,13.83
2022-09-15T00:43:50.145Z,13.79
2022-09-15T00:46:20.177Z,13.79
2022-09-15T00:48:58.541Z,13.77
2022-09-15T00:51:48.771Z,13.74
2022-09-15T00:54:44.321Z,13.72
2022-09-15T00:57:43.379Z,13.72
2022-09-15T01:00:15.125Z,13.77
2022-09-15T01:02:44.644Z,13.81
2022-09-15T01:05:13.944Z,13.83
2022-09-15T01:07:53.691Z,13.82
2022-09-15T01:10:28.854Z,13.82
2022-09-15T01:13:03.683Z,13.80
2022-09-15T01:15:49.136Z,13.83
2022-09-15T01:18:20.608Z,13.84
2022-09-15T01:20:56.377Z,13.73
2022-09-15T01:23:52.386Z,13.62
2022-09-15T01:26:18.952Z,13.59
2022-09-15T01:28:45.568Z,13.49
2022-09-15T01:31:24.774Z,13.37
2022-09-15T01:34:00.275Z,13.26
2022-09-15T01:36:45.593Z,13.26
2022-09-15T01:39:33.072Z,13.22
2022-09-15T01:42:03.885Z,13.21
2022-09-15T01:44:45.160Z,13.23
2022-09-15T01:47:16.172Z,13.20
2022-09-15T01:49:49.932Z,13.25
2022-09-15T01:52:20.542Z,13.23
2022-09-15T01:54:52.645Z,13.20
2022-09-15T01:57:22.263Z,13.12
2022-09-15T01:59:54.699Z,13.13
2022-09-15T02:02:40.534Z,13.09
2022-09-15T02:05:25.393Z,13.08
2022-09-15T02:08:06.587Z,13.08
2022-09-15T02:11:16.969Z,13.08
2022-09-15T02:14:17.320Z,13.05
2022-09-15T02:16:49.713Z,13.06
2022-09-15T02:19:41.112Z,13.01
2022-09-15T02:22:27.823Z,13.04
2022-09-15T02:25:02.267Z,13.02
2022-09-15T02:27:34.041Z,12.97
2022-09-15T02:30:07.110Z,12.98
2022-09-15T02:32:38.737Z,12.98
2022-09-15T02:35:07.676Z,13.00
2022-09-15T02:37:36.651Z,12.97
2022-09-15T02:40:04.584Z,13.02
2022-09-15T02:42:32.789Z,13.05
2022-09-15T02:45:01.472Z,13.07
2022-09-15T02:47:29.289Z,13.01
2022-09-15T02:49:56.738Z,12.99
2022-09-15T02:52:23.601Z,13.03
2022-09-15T02:54:50.548Z,13.04
2022-09-15T02:57:17.411Z,13.01
2022-09-15T03:00:02.721Z,12.98
2022-09-15T03:02:29.855Z,12.98
2022-09-15T03:04:56.472Z,13.01
2022-09-15T03:07:23.519Z,12.97
2022-09-15T03:09:52.179Z,12.98
2022-09-15T03:12:18.926Z,12.94
2022-09-15T03:14:47.073Z,12.88
2022-09-15T03:17:15.948Z,12.83
2022-09-15T03:19:42.776Z,12.71
2022-09-15T03:22:11.817Z,12.71
2022-09-15T03:24:38.570Z,12.64
2022-09-15T03:27:05.925Z,12.59
2022-09-15T03:29:32.582Z,12.63
2022-09-15T03:31:59.381Z,12.64
2022-09-15T03:34:26.088Z,12.61
2022-09-15T03:36:52.796Z,12.63
2022-09-15T03:39:19.405Z,12.64
2022-09-15T03:41:46.098Z,12.63
2022-09-15T03:44:14.201Z,12.61
2022-09-15T03:46:40.922Z,12.57
2022-09-15T03:49:07.709Z,12.56
2022-09-15T03:51:34.383Z,12.53
2022-09-15T03:54:01.243Z,12.56
2022-09-15T03:56:33.384Z,12.54
2022-09-15T03:59:02.926Z,12.54
2022-09-15T04:01:31.815Z,12.53
2022-09-15T04:03:58.943Z,12.53
2022-09-15T04:06:26.641Z,12.50
2022-09-15T04:08:54.104Z,12.50
2022-09-15T04:11:22.734Z,12.52
2022-09-15T04:13:49.935Z,12.55
2022-09-15T04:16:22.131Z,12.47
2022-09-15T04:18:50.715Z,12.49
2022-09-15T04:21:20.617Z,12.43
2022-09-15T04:23:48.546Z,12.38
2022-09-15T04:26:36.618Z,12.34
2022-09-15T04:29:05.152Z,12.32
2022-09-15T04:31:33.299Z,12.30
2022-09-15T04:34:00.269Z,12.29
2022-09-15T04:36:28.334Z,12.28
2022-09-15T04:38:56.001Z,12.32
2022-09-15T04:41:24.344Z,12.37
2022-09-15T04:43:54.679Z,12.47
2022-09-15T04:46:21.553Z,12.52
2022-09-15T04:48:48.981Z,12.56
2022-09-15T04:51:21.006Z,12.60
2022-09-15T04:53:49.281Z,12.66
2022-09-15T04:56:21.987Z,12.70
2022-09-15T04:59:03.219Z,12.73
2022-09-15T05:01:33.732Z,12.69
2022-09-15T05:04:03.600Z,12.66
2022-09-15T05:06:30.357Z,12.65
2022-09-15T05:08:58.114Z,12.68
2022-09-15T05:11:25.882Z,12.66
2022-09-15T05:13:53.426Z,12.58
2022-09-15T05:16:25.621Z,12.58
2022-09-15T05:18:54.571Z,12.53
2022-09-15T05:21:22.472Z,12.50
2022-09-15T05:23:51.830Z,12.53
2022-09-15T05:26:26.982Z,12.52
2022-09-15T05:28:54.102Z,12.53
2022-09-15T05:34:07.824Z,12.53
2022-09-15T05:36:34.514Z,12.52
2022-09-15T05:39:01.982Z,12.48
2022-09-15T05:41:31.068Z,12.49
2022-09-15T05:43:58.396Z,12.46
2022-09-15T05:46:26.331Z,12.55
2022-09-15T05:48:54.827Z,12.57
2022-09-15T05:51:22.115Z,12.68
2022-09-15T05:53:49.057Z,12.78
2022-09-15T05:59:11.645Z,13.14
2022-09-15T06:01:38.380Z,13.22
2022-09-15T06:04:05.091Z,13.32
2022-09-15T06:06:32.536Z,13.66
2022-09-15T06:09:01.789Z,13.74
2022-09-15T06:11:30.782Z,13.53
2022-09-15T06:14:03.188Z,13.38
2022-09-15T06:16:33.655Z,13.27
2022-09-15T06:19:03.947Z,13.37
2022-09-15T06:21:32.516Z,14.14
2022-09-15T06:24:04.111Z,14.84
2022-09-15T06:26:30.785Z,15.28
2022-09-15T06:29:00.196Z,14.99
2022-09-15T06:31:29.226Z,14.50
2022-09-15T06:33:57.722Z,14.45
2022-09-15T06:36:27.255Z,14.40
2022-09-15T06:38:54.688Z,14.13
2022-09-15T06:41:21.806Z,14.03
2022-09-15T06:43:49.381Z,13.98
2022-09-15T06:46:19.368Z,13.91
2022-09-15T06:48:48.486Z,13.71
2022-09-15T06:51:18.099Z,13.68
2022-09-15T06:53:45.596Z,13.89
2022-09-15T06:56:15.738Z,14.04
2022-09-15T06:58:43.299Z,14.22
2022-09-15T07:01:13.175Z,14.35
2022-09-15T07:03:43.021Z,14.52
2022-09-15T07:06:12.168Z,14.56
2022-09-15T07:08:40.314Z,14.74
2022-09-15T07:11:08.917Z,14.76
2022-09-15T07:13:35.785Z,14.88
2022-09-15T07:16:04.268Z,15.09
2022-09-15T07:18:31.641Z,15.18
2022-09-15T07:21:18.487Z,15.28
2022-09-15T07:23:45.477Z,15.29
2022-09-15T07:26:27.646Z,15.40
2022-09-15T07:28:59.633Z,15.49
2022-09-15T07:31:29.101Z,15.59
2022-09-15T07:33:56.114Z,15.65
2022-09-15T07:36:22.854Z,15.62
2022-09-15T07:38:50.252Z,15.82
2022-09-15T07:41:19.493Z,15.93
2022-09-15T07:43:50.955Z,15.98
2022-09-15T07:46:18.894Z,16.04
2022-09-15T07:48:47.472Z,15.94
2022-09-15T07:51:15.604Z,15.99
2022-09-15T07:53:44.314Z,15.78
2022-09-15T07:56:11.032Z,16.24
2022-09-15T07:58:37.776Z,16.12
2022-09-15T08:01:07.026Z,16.28
2022-09-15T08:03:34.416Z,16.18
2022-09-15T08:06:04.173Z,16.25
2022-09-15T08:08:30.868Z,16.20
2022-09-15T08:10:57.609Z,16.23
2022-09-15T08:13:25.036Z,16.39
2022-09-15T08:15:52.446Z,16.55
2022-09-15T08:18:19.433Z,16.16
2022-09-15T08:20:46.112Z,15.97
2022-09-15T08:23:13.944Z,16.15
2022-09-15T08:25:40.595Z,16.31
2022-09-15T08:28:07.877Z,16.45
2022-09-15T08:30:35.368Z,16.25
2022-09-15T08:33:02.064Z,16.56
2022-09-15T08:35:30.023Z,16.87
2022-09-15T08:37:56.672Z,16.79
2022-09-15T08:40:35.424Z,16.80
2022-09-15T08:43:12.887Z,16.86
2022-09-15T08:45:52.363Z,16.91
2022-09-15T08:48:27.164Z,16.85
2022-09-15T08:50:57.950Z,17.17
2022-09-15T08:53:35.640Z,17.05
2022-09-15T08:56:11.739Z,16.87
2022-09-15T08:58:38.504Z,17.15
2022-09-15T09:01:11.218Z,17.27
2022-09-15T09:04:02.684Z,17.41
2022-09-15T09:06:41.782Z,17.18
2022-09-15T09:09:18.468Z,17.00
2022-09-15T09:12:15.723Z,17.14
2022-09-15T09:15:13.376Z,17.18
2022-09-15T09:18:14.690Z,17.09
2022-09-15T09:21:19.701Z,17.59
2022-09-15T09:24:02.056Z,17.34
2022-09-15T09:26:30.976Z,17.37
2022-09-15T09:29:06.398Z,17.52
2022-09-15T09:31:35.930Z,17.36
2022-09-15T09:34:27.813Z,17.02
2022-09-15T09:36:58.699Z,16.78
2022-09-15T09:39:28.026Z,16.39
2022-09-15T09:41:55.763Z,16.04
2022-09-15T09:44:31.941Z,15.75
2022-09-15T09:47:00.507Z,15.47
2022-09-15T09:49:34.327Z,15.66
2022-09-15T09:52:03.668Z,16.31
2022-09-15T09:54:34.020Z,16.83
2022-09-15T09:57:29.871Z,17.06
2022-09-15T09:59:56.947Z,17.18
2022-09-15T10:02:25.825Z,17.29
2022-09-15T10:05:18.008Z,17.65
2022-09-15T10:07:44.887Z,17.55
2022-09-15T10:10:23.611Z,17.91
2022-09-15T10:12:54.755Z,18.13
2022-09-15T10:15:27.052Z,18.04
2022-09-15T10:17:55.798Z,18.21
2022-09-15T10:20:32.683Z,17.80
2022-09-15T10:23:14.792Z,17.56
2022-09-15T10:25:59.600Z,17.36
2022-09-15T10:28:27.682Z,17.41
2022-09-15T10:31:08.074Z,17.30
2022-09-15T10:33:37.725Z,17.21
2022-09-15T10:36:06.101Z,17.21
2022-09-15T10:38:40.262Z,17.58
2022-09-15T10:41:09.770Z,17.66
2022-09-15T10:43:58.096Z,17.32
2022-09-15T10:46:49.185Z,17.53
2022-09-15T10:49:21.925Z,17.88
2022-09-15T10:52:16.387Z,17.77
2022-09-15T10:55:12.877Z,18.24
2022-09-15T10:57:54.626Z,18.99
2022-09-15T11:00:23.307Z,17.84
2022-09-15T11:03:02.048Z,16.37
2022-09-15T11:05:59.794Z,15.97
2022-09-15T11:08:35.775Z,15.72
2022-09-15T11:11:27.990Z,15.19
2022-09-15T11:14:06.188Z,15.03
2022-09-15T11:16:49.034Z,14.94
2022-09-15T11:19:34.003Z,15.05
2022-09-15T11:22:24.411Z,15.14
2022-09-15T11:25:05.257Z,15.52
2022-09-15T11:28:00.705Z,15.89
2022-09-15T11:30:47.644Z,16.31
2022-09-15T11:33:34.683Z,16.86
2022-09-15T11:36:17.886Z,17.05
2022-09-15T11:38:57.692Z,17.48
2022-09-15T11:41:24.202Z,17.66
2022-09-15T11:43:55.237Z,17.41
2022-09-15T11:46:57.393Z,17.16
2022-09-15T11:49:31.402Z,16.60
2022-09-15T11:52:24.794Z,16.43
2022-09-15T11:55:13.702Z,16.83
2022-09-15T11:58:22.056Z,16.90
2022-09-15T12:00:57.653Z,16.78
2022-09-15T12:03:33.306Z,16.82
2022-09-15T12:06:07.473Z,17.46
2022-09-15T12:08:40.442Z,17.84
2022-09-15T12:11:20.447Z,17.84
2022-09-15T12:13:47.344Z,17.94
2022-09-15T12:16:15.839Z,17.98
2022-09-15T12:18:49.872Z,17.93
2022-09-15T12:21:50.919Z,18.06
2022-09-15T12:24:29.270Z,18.25
2022-09-15T12:26:56.392Z,18.72
2022-09-15T12:29:26.070Z,18.57
2022-09-15T12:32:33.249Z,18.20
2022-09-15T12:35:15.677Z,18.30
2022-09-15T12:37:56.129Z,18.28
2022-09-15T12:40:36.423Z,18.27
2022-09-15T12:43:10.967Z,18.62
2022-09-15T12:45:38.531Z,18.50
2022-09-15T12:48:15.879Z,18.20
2022-09-15T12:50:54.740Z,18.13
2022-09-15T12:53:29.130Z,18.14
2022-09-15T12:55:57.988Z,17.84
2022-09-15T12:58:36.827Z,17.35
2022-09-15T13:01:19.307Z,17.48
2022-09-15T13:03:46.279Z,17.47
2022-09-15T13:06:20.991Z,17.44
2022-09-15T13:09:05.215Z,17.23
2022-09-15T13:11:37.309Z,17.82
2022-09-15T13:14:04.218Z,17.36
2022-09-15T13:16:53.786Z,17.46
2022-09-15T13:19:46.894Z,17.43
2022-09-15T13:22:27.417Z,17.84
2022-09-15T13:25:11.245Z,17.41
2022-09-15T13:27:39.737Z,17.77
2022-09-15T13:30:26.019Z,18.31
2022-09-15T13:35:02.464Z,17.72
2022-09-15T13:38:04.061Z,16.94
2022-09-15T13:39:24.761Z,16.96
2022-09-15T13:42:08.008Z,17.32
2022-09-15T13:44:44.578Z,17.36
2022-09-15T13:47:29.828Z,17.59
2022-09-15T13:50:16.843Z,17.57
2022-09-15T13:53:02.488Z,17.46
2022-09-15T13:55:32.789Z,17.14
2022-09-15T14:00:55.066Z,16.43
2022-09-15T14:03:33.811Z,16.60
2022-09-15T14:06:00.702Z,17.02
2022-09-15T14:08:33.375Z,17.14
2022-09-15T14:11:03.587Z,17.07
2022-09-15T14:13:31.181Z,17.04
2022-09-15T14:16:23.810Z,17.25
2022-09-15T14:18:53.061Z,17.03
2022-09-15T14:21:25.635Z,17.24
2022-09-15T14:23:55.070Z,16.93
2022-09-15T14:26:24.808Z,17.05
2022-09-15T14:28:56.158Z,16.73
2022-09-15T14:31:32.256Z,17.16
2022-09-15T14:34:00.354Z,17.12
2022-09-15T14:36:30.977Z,17.30
2022-09-15T14:39:11.295Z,17.35
2022-09-15T14:41:40.145Z,17.33
2022-09-15T14:47:22.884Z,17.71
2022-09-15T14:49:49.608Z,17.51
2022-09-15T14:52:30.658Z,16.90
2022-09-15T14:55:03.225Z,16.62
2022-09-15T14:57:34.464Z,15.95
2022-09-15T15:00:07.078Z,15.45
2022-09-15T15:02:48.836Z,15.23
2022-09-15T15:05:27.691Z,15.77
2022-09-15T15:07:55.588Z,15.93
2022-09-15T15:10:26.248Z,16.06
2022-09-15T15:13:06.955Z,16.47
2022-09-15T15:15:34.511Z,16.39
2022-09-15T15:18:05.923Z,16.18
2022-09-15T15:20:32.929Z,16.28
2022-09-15T15:23:18.325Z,16.46
2022-09-15T15:25:47.051Z,16.61
2022-09-15T15:28:30.681Z,16.59
2022-09-15T15:31:22.536Z,16.54
2022-09-15T15:34:05.475Z,16.42
2022-09-15T15:36:34.782Z,16.38
2022-09-15T15:39:06.846Z,16.08
2022-09-15T15:41:38.717Z,16.00
2022-09-15T15:44:08.116Z,16.01
2022-09-15T15:47:07.526Z,15.88
2022-09-15T15:49:34.610Z,15.81
2022-09-15T15:52:01.914Z,15.74
2022-09-15T15:54:29.355Z,15.77
2022-09-15T15:57:12.904Z,15.74
2022-09-15T15:59:39.586Z,15.82
2022-09-15T16:02:10.836Z,15.81
2022-09-15T16:04:37.558Z,15.73
2022-09-15T16:07:04.363Z,15.70
2022-09-15T16:09:31.062Z,15.49
2022-09-15T16:14:29.890Z,15.56
2022-09-15T16:16:59.345Z,15.59
2022-09-15T16:19:26.036Z,15.54
2022-09-15T16:21:52.701Z,15.49
2022-09-15T16:24:19.366Z,15.45
2022-09-15T16:26:47.796Z,15.39
2022-09-15T16:29:16.390Z,15.37
2022-09-15T16:31:43.163Z,15.44
2022-09-15T16:34:17.607Z,15.49
2022-09-15T16:36:44.290Z,15.49
2022-09-15T16:39:11.681Z,15.44
2022-09-15T16:41:39.427Z,15.30
2022-09-15T16:44:19.303Z,15.28
2022-09-15T16:46:46.188Z,15.17
2022-09-15T16:49:12.990Z,15.02
2022-09-15T16:51:39.903Z,14.92
2022-09-15T16:54:17.896Z,14.82
2022-09-15T16:56:45.621Z,14.73
2022-09-15T16:59:12.961Z,14.68
2022-09-15T17:01:39.845Z,14.64
2022-09-15T17:04:16.580Z,14.71
2022-09-15T17:06:43.493Z,14.73
2022-09-15T17:09:10.174Z,14.67
2022-09-15T17:11:37.199Z,14.60
2022-09-15T17:14:04.081Z,14.60
2022-09-15T17:16:30.762Z,14.57
2022-09-15T17:18:57.513Z,14.47
2022-09-15T17:21:27.582Z,14.49
2022-09-15T17:23:54.277Z,14.45
2022-09-15T17:26:28.783Z,14.47
2022-09-15T17:28:58.178Z,14.37
2022-09-15T17:31:25.194Z,14.32
2022-09-15T17:33:52.640Z,14.23
2022-09-15T17:36:19.786Z,14.25
2022-09-15T17:38:48.837Z,14.14
2022-09-15T17:41:18.558Z,14.12
2022-09-15T17:43:45.612Z,14.06
2022-09-15T17:46:12.325Z,14.03
2022-09-15T17:48:39.200Z,13.94
2022-09-15T17:51:07.334Z,13.91
2022-09-15T17:53:34.256Z,13.83
2022-09-15T17:56:01.278Z,13.80
2022-09-15T17:58:29.962Z,13.72
2022-09-15T18:00:57.593Z,13.67
2022-09-15T18:03:27.494Z,13.61
2022-09-15T18:05:56.250Z,13.59
2022-09-15T18:08:23.060Z,13.56
2022-09-15T18:10:49.963Z,13.51
2022-09-15T18:13:19.736Z,13.49
2022-09-15T18:15:48.742Z,13.43
2022-09-15T18:18:18.620Z,13.44
2022-09-15T18:20:45.793Z,13.38
2022-09-15T18:23:15.283Z,13.29
2022-09-15T18:25:43.321Z,13.29
2022-09-15T18:28:10.846Z,13.28
2022-09-15T18:30:42.877Z,13.26
2022-09-15T18:33:23.976Z,13.13
2022-09-15T18:35:55.400Z,13.04
2022-09-15T18:38:25.213Z,13.09
2022-09-15T18:40:55.355Z,13.08
2022-09-15T18:43:23.603Z,13.07
2022-09-15T18:45:50.374Z,12.99
2022-09-15T18:48:17.099Z,12.92
2022-09-15T18:50:44.858Z,12.87
2022-09-15T18:53:12.046Z,12.86
2022-09-15T18:55:41.091Z,12.86
2022-09-15T18:58:08.054Z,12.87
2022-09-15T19:00:34.890Z,12.87
2022-09-15T19:03:04.195Z,12.91
2022-09-15T19:05:32.441Z,12.81
2022-09-15T19:07:59.200Z,12.78
2022-09-15T19:10:26.842Z,12.72
2022-09-15T19:12:54.307Z,12.72
2022-09-15T19:15:23.648Z,12.68
2022-09-15T19:17:50.669Z,12.59
2022-09-15T19:20:17.507Z,12.56
2022-09-15T19:22:44.187Z,12.53
2022-09-15T19:25:12.541Z,12.52
2022-09-15T19:27:40.071Z,12.44
2022-09-15T19:30:09.946Z,12.48
2022-09-15T19:32:38.288Z,12.51
2022-09-15T19:35:05.858Z,12.51
2022-09-15T19:37:36.976Z,12.49
2022-09-15T19:40:08.264Z,12.48
2022-09-15T19:42:35.856Z,12.40
2022-09-15T19:45:02.540Z,12.39
2022-09-15T19:47:29.707Z,12.29
2022-09-15T19:49:56.349Z,12.24
2022-09-15T19:52:23.047Z,12.21
2022-09-15T19:54:49.726Z,12.18
2022-09-15T19:57:16.910Z,12.11
2022-09-15T19:59:44.724Z,12.14
2022-09-15T20:02:12.030Z,12.08
2022-09-15T20:04:39.721Z,12.06
2022-09-15T20:07:06.423Z,12.03
2022-09-15T20:09:33.746Z,11.98
2022-09-15T20:12:03.465Z,11.93
2022-09-15T20:14:31.271Z,11.92
2022-09-15T20:17:01.157Z,11.84
2022-09-15T20:19:29.485Z,11.77
2022-09-15T20:21:56.213Z,11.76
2022-09-15T20:24:23.898Z,11.72
2022-09-15T20:26:51.237Z,11.69
2022-09-15T20:29:18.936Z,11.72
2022-09-15T20:31:45.629Z,11.70
2022-09-15T20:34:12.372Z,11.66
2022-09-15T20:36:39.389Z,11.65
2022-09-15T20:39:12.844Z,11.63
2022-09-15T20:41:41.388Z,11.61
2022-09-15T20:44:11.459Z,11.59
2022-09-15T20:46:38.489Z,11.53
2022-09-15T20:49:08.144Z,11.54
2022-09-15T20:51:35.212Z,11.57
2022-09-15T20:54:04.009Z,11.57
2022-09-15T20:56:34.895Z,11.53
2022-09-15T20:59:02.455Z,11.52
2022-09-15T21:01:34.286Z,11.57
2022-09-15T21:04:01.467Z,11.63
2022-09-15T21:06:28.847Z,11.62
2022-09-15T21:08:57.737Z,11.65
2022-09-15T21:11:26.652Z,11.63
2022-09-15T21:13:54.170Z,11.68
2022-09-15T21:16:23.265Z,11.74
2022-09-15T21:18:51.245Z,11.79
2022-09-15T21:21:26.759Z,11.79
2022-09-15T21:24:03.765Z,11.75
2022-09-15T21:26:33.558Z,11.69
2022-09-15T21:29:01.028Z,11.66
2022-09-15T21:31:32.963Z,11.64
2022-09-15T21:34:00.209Z,11.46
2022-09-15T21:36:29.566Z,11.32
2022-09-15T21:38:58.469Z,11.20
2022-09-15T21:41:29.077Z,11.25
2022-09-15T21:43:58.051Z,11.28
2022-09-15T21:46:27.434Z,11.27
2022-09-15T21:48:56.039Z,11.30
2022-09-15T21:51:25.146Z,11.34
2022-09-15T21:53:54.408Z,11.30
2022-09-15T21:56:22.203Z,11.31
2022-09-15T21:58:49.094Z,11.34
2022-09-15T22:01:21.606Z,11.34
2022-09-15T22:03:57.111Z,11.32
2022-09-15T22:06:30.281Z,11.32
2022-09-15T22:08:58.659Z,11.32
2022-09-15T22:11:25.478Z,11.31
2022-09-15T22:13:52.159Z,11.34
2022-09-15T22:16:24.116Z,11.30
2022-09-15T22:18:51.614Z,11.26
2022-09-15T22:21:20.893Z,11.21
2022-09-15T22:23:49.059Z,11.09
2022-09-15T22:26:19.717Z,11.17
2022-09-15T22:28:46.815Z,11.11
2022-09-15T22:31:15.359Z,11.11
2022-09-15T22:33:42.468Z,11.15
2022-09-15T22:36:15.475Z,11.18
2022-09-15T22:38:42.567Z,11.14
2022-09-15T22:41:12.900Z,11.16
2022-09-15T22:43:42.472Z,11.20
2022-09-15T22:46:09.577Z,11.26
2022-09-15T22:48:39.751Z,11.29
2022-09-15T22:51:10.308Z,11.27
2022-09-15T22:53:37.054Z,11.28
2022-09-15T22:56:06.903Z,11.29
2022-09-15T22:58:35.164Z,11.40
2022-09-15T23:01:14.197Z,11.35
2022-09-15T23:03:41.716Z,11.41
2022-09-15T23:06:08.577Z,11.48
2022-09-15T23:08:36.104Z,11.38
2022-09-15T23:11:13.711Z,11.35
2022-09-15T23:13:41.358Z,11.36
2022-09-15T23:16:09.100Z,11.29
2022-09-15T23:18:36.062Z,11.20
2022-09-15T23:21:09.202Z,11.14
2022-09-15T23:23:38.192Z,11.06
2022-09-15T23:26:08.644Z,10.97
2022-09-15T23:28:36.288Z,10.96
2022-09-15T23:31:03.326Z,10.93
2022-09-15T23:33:31.489Z,10.83
2022-09-15T23:36:07.110Z,10.83
2022-09-15T23:38:38.545Z,10.82
2022-09-15T23:41:05.965Z,10.85
2022-09-15T23:43:33.317Z,10.84
2022-09-15T23:46:00.988Z,10.93
2022-09-15T23:48:28.058Z,11.01
2022-09-15T23:50:55.001Z,11.04
2022-09-15T23:53:21.618Z,11.11
2022-09-15T23:55:48.399Z,11.13
2022-09-15T23:58:15.347Z,11.13
